Time;durP1;ratioP1;P1;durP2;ratioP2;P2;SDS_P1;SDS_P2;PMS_P1;PMS_P2;Temp;Humidity;BMP_temperature;BMP_pressure;BME280_temperature;BME280_humidity;BME280_pressure;Samples;Min_cycle;Max_cycle;Signal;HPM_P1;HPM_P2
2020/12/04 00:00:49;;;;;;;;;33.50;30.50;;;;;15.79;46.15;97264.63;4908767;28;102256;-80
2020/12/04 00:03:16;;;;;;;;;37.25;30.50;;;;;15.77;46.37;97262.16;4891260;28;104074;-81
2020/12/04 00:05:43;;;;;;;;;39.75;31.25;;;;;15.79;45.88;97264.63;4897583;28;104079;-80
2020/12/04 00:08:09;;;;;;;;;35.00;28.00;;;;;15.78;45.69;97266.53;4896774;28;102221;-75
2020/12/04 00:10:37;;;;;;;;;33.25;29.00;;;;;15.78;46.14;97276.63;4895224;28;103419;-75
2020/12/04 00:13:04;;;;;;;;;34.25;30.75;;;;;15.77;45.97;97281.25;4900240;28;104060;-75
2020/12/04 00:15:31;;;;;;;;;29.75;27.75;;;;;15.76;45.71;97265.97;4895900;28;103261;-74
2020/12/04 00:17:58;;;;;;;;;40.00;30.00;;;;;15.74;46.12;97256.44;4905162;28;102511;-75
2020/12/04 00:20:24;;;;;;;;;39.25;31.00;;;;;15.74;46.61;97259.97;4903488;28;102555;-75
2020/12/04 00:22:51;;;;;;;;;23.50;21.75;;;;;15.74;46.08;97246.34;4898685;28;104069;-75
2020/12/04 00:25:17;;;;;;;;;30.75;29.00;;;;;15.74;46.00;97256.44;4898332;28;103633;-80
2020/12/04 00:27:44;;;;;;;;;36.25;31.00;;;;;15.73;46.22;97250.16;4901729;28;102761;-80
2020/12/04 00:30:11;;;;;;;;;29.75;26.50;;;;;15.73;46.39;97254.78;4891004;28;102984;-80
2020/12/04 00:32:37;;;;;;;;;31.75;29.50;;;;;15.72;46.04;97253.97;4896036;28;104668;-80
2020/12/04 00:35:04;;;;;;;;;28.75;25.00;;;;;15.71;46.17;97244.16;4898243;28;102838;-80
2020/12/04 00:37:31;;;;;;;;;35.00;29.75;;;;;15.70;46.25;97253.44;4899752;28;103841;-80
2020/12/04 00:39:57;;;;;;;;;28.75;24.50;;;;;15.70;46.03;97239.81;4896893;28;102608;-80
2020/12/04 00:42:24;;;;;;;;;29.75;26.00;;;;;15.69;46.51;97243.59;4893549;28;104079;-80
2020/12/04 00:44:50;;;;;;;;;31.75;26.75;;;;;15.69;46.20;97227.25;4900305;28;102516;-81
2020/12/04 00:47:17;;;;;;;;;29.25;24.50;;;;;15.69;46.08;97240.88;4900640;28;102661;-81
2020/12/04 00:49:44;;;;;;;;;30.00;26.00;;;;;15.68;46.08;97233.78;4902248;28;102634;-81
2020/12/04 00:52:11;;;;;;;;;31.50;26.25;;;;;15.69;46.26;97231.88;4891214;28;104227;-80
2020/12/04 00:54:38;;;;;;;;;30.75;25.00;;;;;15.68;46.23;97224.78;4898000;28;102614;-75
2020/12/04 00:57:07;;;;;;;;;29.00;25.75;;;;;15.67;46.37;97225.91;4902802;28;103599;-74
2020/12/04 00:59:34;;;;;;;;;25.50;20.25;;;;;15.66;46.00;97226.97;4899462;28;103805;-75
2020/12/04 01:02:00;;;;;;;;;26.50;25.00;;;;;15.64;46.22;97219.06;4892160;28;104071;-75
2020/12/04 01:04:27;;;;;;;;;24.25;21.75;;;;;15.63;45.80;97220.13;4886520;28;102446;-75
2020/12/04 01:06:54;;;;;;;;;25.25;25.25;;;;;15.63;46.13;97212.78;4892818;28;102323;-75
2020/12/04 01:09:20;;;;;;;;;24.00;21.25;;;;;15.64;46.12;97213.59;4900893;28;102647;-75
2020/12/04 01:11:47;;;;;;;;;27.50;22.00;;;;;15.63;46.10;97218.25;4900516;28;104390;-75
2020/12/04 01:14:14;;;;;;;;;24.00;22.50;;;;;15.64;46.28;97210.88;4900792;28;102496;-75
2020/12/04 01:16:40;;;;;;;;;31.50;26.75;;;;;15.63;46.52;97231.03;4902881;28;103318;-75
2020/12/04 01:19:07;;;;;;;;;25.75;24.25;;;;;15.62;46.12;97223.97;4901776;28;103658;-75
2020/12/04 01:21:34;;;;;;;;;26.75;23.00;;;;;15.61;46.23;97222.31;4894022;28;103682;-75
2020/12/04 01:24:00;;;;;;;;;25.25;23.50;;;;;15.60;46.07;97218.78;4899749;28;102455;-75
2020/12/04 01:26:27;;;;;;;;;25.75;20.50;;;;;15.59;46.13;97221.75;4898798;28;102236;-75
2020/12/04 01:28:53;;;;;;;;;27.25;23.50;;;;;15.58;46.29;97203.78;4902575;28;103912;-74
2020/12/04 01:31:20;;;;;;;;;29.25;25.75;;;;;15.57;46.40;97202.16;4899114;28;108921;-75
2020/12/04 01:33:47;;;;;;;;;25.00;20.75;;;;;15.57;46.53;97200.25;4895460;28;102357;-75
2020/12/04 01:36:14;;;;;;;;;25.75;22.50;;;;;15.57;45.86;97193.97;4893463;28;102630;-75
2020/12/04 01:38:42;;;;;;;;;20.00;18.00;;;;;15.59;46.38;97197.25;4897481;28;102634;-75
2020/12/04 01:41:08;;;;;;;;;20.25;17.25;;;;;15.58;46.10;97184.69;4897378;28;104063;-75
2020/12/04 01:43:38;;;;;;;;;24.00;21.50;;;;;15.56;46.40;97170.53;4900785;28;102238;-75
2020/12/04 01:46:05;;;;;;;;;22.00;18.75;;;;;15.56;46.17;97181.44;4896863;28;102512;-75
2020/12/04 01:48:31;;;;;;;;;26.00;21.00;;;;;15.56;46.05;97173.25;4906683;28;103134;-75
2020/12/04 01:50:59;;;;;;;;;24.50;20.00;;;;;15.54;46.00;97172.69;4898209;28;104259;-75
2020/12/04 01:53:25;;;;;;;;;20.75;16.75;;;;;15.52;46.10;97173.00;4882557;28;103795;-75
2020/12/04 01:55:52;;;;;;;;;22.00;19.50;;;;;15.55;46.08;97158.00;4910500;28;104009;-75
2020/12/04 01:58:18;;;;;;;;;20.75;17.50;;;;;15.55;46.21;97161.53;4914036;28;102781;-75
2020/12/04 02:00:45;;;;;;;;;20.50;17.00;;;;;15.55;46.02;97153.38;4888050;28;104458;-75
2020/12/04 02:03:12;;;;;;;;;19.00;17.75;;;;;15.54;46.26;97156.34;4899488;28;102628;-75
2020/12/04 02:05:59;;;;;;;;;25.25;21.00;;;;;15.54;46.15;97140.00;4896814;28;104263;-75
2020/12/04 02:09:05;;;;;;;;;22.75;19.75;;;;;15.52;46.56;97134.03;4900923;28;102736;-75
2020/12/04 02:11:36;;;;;;;;;21.50;20.75;;;;;15.53;46.49;97116.59;4770887;28;108657;-75
2020/12/04 02:14:05;;;;;;;;;22.75;19.00;;;;;15.52;46.30;97101.34;4900845;28;102919;-75
2020/12/04 02:16:38;;;;;;;;;17.00;15.75;;;;;15.52;46.38;97109.50;4897362;28;102535;-74
2020/12/04 02:19:07;;;;;;;;;18.00;16.25;;;;;15.52;46.24;97106.78;4907408;28;102750;-74
2020/12/04 02:21:36;;;;;;;;;23.25;18.75;;;;;15.50;46.32;97081.66;4901310;28;103636;-75
2020/12/04 02:24:08;;;;;;;;;19.75;16.25;;;;;15.53;46.33;97089.34;4901661;28;103916;-75
2020/12/04 02:26:44;;;;;;;;;19.50;18.00;;;;;15.52;46.36;97085.00;4903167;28;102615;-80
2020/12/04 02:29:13;;;;;;;;;17.25;15.25;;;;;15.52;46.64;97082.25;4874445;28;103533;-81
2020/12/04 02:31:44;;;;;;;;;18.50;18.50;;;;;15.51;46.58;97073.28;4894913;28;103093;-80
2020/12/04 02:34:14;;;;;;;;;23.25;18.75;;;;;15.50;46.49;97068.03;4899853;28;102535;-81
2020/12/04 02:36:43;;;;;;;;;25.50;19.75;;;;;15.51;46.39;97083.34;4902016;28;103677;-74
2020/12/04 02:39:15;;;;;;;;;17.25;16.00;;;;;15.50;46.43;97073.50;4903595;28;102592;-75
2020/12/04 02:41:45;;;;;;;;;16.50;15.00;;;;;15.51;46.10;97078.72;4899106;28;103052;-75
2020/12/04 02:44:12;;;;;;;;;21.50;17.00;;;;;15.51;46.76;97086.06;4895244;28;102221;-75
2020/12/04 02:46:39;;;;;;;;;20.25;17.00;;;;;15.52;46.60;97085.00;4902204;28;102745;-75
2020/12/04 02:49:05;;;;;;;;;20.50;16.25;;;;;15.52;46.69;97093.16;4893886;28;103494;-75
2020/12/04 02:51:32;;;;;;;;;19.00;17.50;;;;;15.52;46.56;97098.59;4892113;28;104112;-75
2020/12/04 02:53:59;;;;;;;;;17.00;15.00;;;;;15.52;46.49;97098.59;4900727;28;102647;-75
2020/12/04 02:56:25;;;;;;;;;14.50;14.00;;;;;15.52;46.59;97099.44;4899451;28;102340;-80
2020/12/04 02:58:52;;;;;;;;;13.25;12.50;;;;;15.53;46.76;97089.34;4901584;28;102577;-80
2020/12/04 03:01:19;;;;;;;;;15.75;14.00;;;;;15.55;46.73;97103.50;4902601;28;109369;-75
2020/12/04 03:03:45;;;;;;;;;15.00;12.25;;;;;15.54;46.49;97101.88;4900550;28;103218;-75
2020/12/04 03:06:12;;;;;;;;;17.50;15.25;;;;;15.54;46.58;97101.88;4900438;28;104547;-75
2020/12/04 03:08:39;;;;;;;;;15.25;13.50;;;;;15.53;46.52;97111.16;4901624;28;102185;-75
2020/12/04 03:11:06;;;;;;;;;15.50;15.00;;;;;15.52;46.67;97104.88;4898445;28;104212;-75
2020/12/04 03:13:32;;;;;;;;;18.00;14.25;;;;;15.53;46.17;97114.69;4903330;28;102568;-75
2020/12/04 03:15:59;;;;;;;;;19.00;14.75;;;;;15.52;46.46;97110.31;4892061;28;102262;-75
2020/12/04 03:18:26;;;;;;;;;14.50;13.25;;;;;15.52;46.47;97110.31;4896387;28;102488;-75
2020/12/04 03:20:52;;;;;;;;;16.00;12.25;;;;;15.53;46.56;97102.97;4896317;28;104241;-75
2020/12/04 03:23:19;;;;;;;;;15.25;13.25;;;;;15.54;46.36;97097.22;4896820;28;102406;-75
2020/12/04 03:25:46;;;;;;;;;14.00;12.75;;;;;15.53;46.37;97097.53;4909095;28;102513;-75
2020/12/04 03:28:13;;;;;;;;;16.50;14.75;;;;;15.53;46.58;97090.19;4896846;28;102738;-75
2020/12/04 03:30:39;;;;;;;;;10.25;9.75;;;;;15.54;46.55;97085.53;4896517;28;104064;-75
2020/12/04 03:33:06;;;;;;;;;15.75;14.00;;;;;15.53;46.59;97095.63;4898594;28;102220;-75
2020/12/04 03:35:33;;;;;;;;;15.75;14.00;;;;;15.55;46.81;97092.63;4906939;28;102747;-75
2020/12/04 03:37:59;;;;;;;;;13.00;12.75;;;;;15.54;46.67;97082.78;4893699;28;102471;-75
2020/12/04 03:40:26;;;;;;;;;10.75;10.25;;;;;15.53;46.52;97086.63;4903313;28;104238;-75
2020/12/04 03:42:53;;;;;;;;;14.75;13.00;;;;;15.54;46.44;97090.97;4903921;28;102425;-75
2020/12/04 03:45:19;;;;;;;;;13.75;12.75;;;;;15.54;46.63;97085.53;4901199;28;104056;-75
2020/12/04 03:47:46;;;;;;;;;13.75;13.00;;;;;15.53;46.41;97081.19;4900109;28;102637;-75
2020/12/04 03:50:13;;;;;;;;;15.75;13.50;;;;;15.54;46.83;97080.06;4896754;28;104133;-75
2020/12/04 03:52:39;;;;;;;;;12.50;10.75;;;;;15.54;46.67;97066.44;4897927;28;102609;-75
2020/12/04 03:55:06;;;;;;;;;15.75;12.75;;;;;15.55;46.95;97066.19;4900449;28;102581;-75
2020/12/04 03:57:33;;;;;;;;;14.50;12.00;;;;;15.55;46.81;97071.63;4903272;28;102678;-75
2020/12/04 03:59:59;;;;;;;;;12.25;10.00;;;;;15.56;47.05;97064.28;4904227;28;103760;-75
2020/12/04 04:02:26;;;;;;;;;9.75;9.75;;;;;15.55;46.96;97055.28;4894127;28;102615;-75
2020/12/04 04:04:53;;;;;;;;;12.00;11.25;;;;;15.55;46.84;97059.91;4895199;28;103484;-75
2020/12/04 04:07:19;;;;;;;;;12.25;10.50;;;;;15.55;46.81;97079.81;4900668;28;102672;-75
2020/12/04 04:09:46;;;;;;;;;12.00;10.50;;;;;15.56;46.68;97084.19;4899197;28;103966;-75
2020/12/04 04:12:12;;;;;;;;;12.00;11.00;;;;;15.55;46.56;97079.00;4902008;28;102351;-75
2020/12/04 04:14:39;;;;;;;;;12.75;11.00;;;;;15.56;46.87;97086.09;4903441;28;102761;-75
2020/12/04 04:17:06;;;;;;;;;13.25;10.75;;;;;15.54;46.66;97093.69;4898282;28;102644;-75
2020/12/04 04:19:33;;;;;;;;;14.25;12.75;;;;;15.55;47.05;97085.25;4892096;28;104128;-75
2020/12/04 04:21:59;;;;;;;;;14.00;11.75;;;;;15.55;46.68;97087.16;4894864;28;102354;-75
2020/12/04 04:24:26;;;;;;;;;12.50;11.50;;;;;15.55;46.88;97087.16;4888896;28;102777;-75
2020/12/04 04:26:53;;;;;;;;;10.25;10.00;;;;;15.52;46.98;97093.97;4896954;28;102444;-75
2020/12/04 04:29:20;;;;;;;;;13.50;12.50;;;;;15.51;46.86;97092.34;4899767;28;108984;-75
2020/12/04 04:31:50;;;;;;;;;9.75;8.50;;;;;15.49;46.46;97101.84;4909194;28;102525;-75
2020/12/04 04:34:17;;;;;;;;;13.50;10.75;;;;;15.47;47.13;97093.13;4902335;28;103538;-75
2020/12/04 04:36:44;;;;;;;;;13.50;12.25;;;;;15.46;47.04;97091.47;4902255;28;105373;-75
2020/12/04 04:39:11;;;;;;;;;13.25;12.25;;;;;15.42;46.97;97087.66;4896958;28;104235;-75
2020/12/04 04:41:38;;;;;;;;;13.75;12.75;;;;;15.38;46.96;97081.09;4905115;28;102715;-75
2020/12/04 04:44:06;;;;;;;;;13.50;10.25;;;;;15.35;46.60;97070.75;4896572;28;102415;-74
2020/12/04 04:46:43;;;;;;;;;11.50;11.50;;;;;15.32;46.91;97074.81;4899554;28;102356;-75
2020/12/04 04:49:26;;;;;;;;;13.50;11.75;;;;;15.30;47.04;97074.28;4895560;28;104288;-75
2020/12/04 04:51:55;;;;;;;;;13.25;10.25;;;;;15.28;46.99;97070.19;4890121;28;103439;-75
2020/12/04 04:54:23;;;;;;;;;13.25;12.00;;;;;15.24;46.93;97075.34;4891239;28;102900;-80
2020/12/04 04:56:51;;;;;;;;;14.00;13.00;;;;;15.21;47.09;97069.63;4901519;28;102492;-80
2020/12/04 04:59:19;;;;;;;;;15.25;13.00;;;;;15.17;47.12;97070.13;4898726;28;104153;-80
2020/12/04 05:01:49;;;;;;;;;14.50;13.50;;;;;15.13;47.11;97071.75;4894213;28;102434;-80
2020/12/04 05:04:17;;;;;;;;;14.75;13.00;;;;;15.11;47.18;97071.22;4893003;28;102514;-81
2020/12/04 05:06:44;;;;;;;;;12.75;11.75;;;;;15.09;47.46;97078.84;4898888;28;103533;-80
2020/12/04 05:09:21;;;;;;;;;12.00;12.00;;;;;15.07;47.04;97075.56;4892646;28;104251;-81
2020/12/04 05:12:00;;;;;;;;;14.00;14.00;;;;;15.05;47.21;97075.00;4877085;28;102802;-80
2020/12/04 05:14:26;;;;;;;;;13.00;12.25;;;;;15.02;47.53;97064.66;4885475;28;102505;-80
2020/12/04 05:16:55;;;;;;;;;16.00;14.00;;;;;14.99;47.35;97073.38;4887325;28;102607;-81
2020/12/04 05:19:36;;;;;;;;;13.25;12.00;;;;;14.94;47.74;97076.06;4898089;28;109573;-80
2020/12/04 05:22:14;;;;;;;;;14.25;11.50;;;;;14.96;47.44;97073.06;4790853;28;102596;-80
2020/12/04 05:24:41;;;;;;;;;14.75;13.25;;;;;14.92;47.44;97080.94;4895762;28;102671;-81
2020/12/04 05:27:28;;;;;;;;;15.50;14.25;;;;;14.91;47.29;97087.47;4900971;28;103218;-81
2020/12/04 05:29:58;;;;;;;;;13.75;12.75;;;;;14.89;47.51;97083.38;4879853;28;109129;-79
2020/12/04 05:32:25;;;;;;;;;14.75;13.50;;;;;14.85;47.79;97072.22;4897254;28;105937;-79
2020/12/04 05:35:04;;;;;;;;;16.25;12.75;;;;;14.81;47.68;97067.56;4885972;28;103203;-81
2020/12/04 05:37:31;;;;;;;;;12.75;11.50;;;;;14.78;47.92;97060.75;4788483;28;103578;-80
2020/12/04 05:39:57;;;;;;;;;13.25;11.25;;;;;14.77;47.89;97074.63;4871019;28;103995;-80
2020/12/04 05:42:34;;;;;;;;;14.50;12.00;;;;;14.74;47.55;97065.91;4914551;28;102190;-80
2020/12/04 05:45:01;;;;;;;;;18.00;13.75;;;;;14.73;47.47;97074.31;4831045;28;102167;-80
2020/12/04 05:47:38;;;;;;;;;13.25;12.50;;;;;14.69;48.00;97074.03;4907362;28;102374;-80
2020/12/04 05:50:06;;;;;;;;;14.25;12.75;;;;;14.68;48.11;97057.97;4912592;28;103757;-80
2020/12/04 05:52:34;;;;;;;;;16.00;13.00;;;;;14.63;47.78;97056.03;4909435;28;102030;-80
2020/12/04 05:55:02;;;;;;;;;17.00;13.00;;;;;14.62;48.21;97059.03;4908309;28;103011;-74
2020/12/04 05:57:28;;;;;;;;;12.75;11.50;;;;;14.58;48.09;97057.94;4924395;28;103170;-75
2020/12/04 05:59:55;;;;;;;;;13.25;11.00;;;;;14.57;48.05;97064.44;4918361;28;103857;-75
2020/12/04 06:02:22;;;;;;;;;15.50;10.00;;;;;14.55;47.63;97074.75;4916794;28;102119;-75
2020/12/04 06:04:53;;;;;;;;;14.75;12.50;;;;;14.51;47.92;97055.44;4910968;28;102141;-75
2020/12/04 06:07:24;;;;;;;;;15.75;12.50;;;;;14.49;47.96;97070.41;4916719;28;102350;-75
2020/12/04 06:09:55;;;;;;;;;14.00;13.00;;;;;14.47;48.57;97065.22;4908551;28;108230;-75
2020/12/04 06:12:22;;;;;;;;;18.75;15.25;;;;;14.47;48.02;97076.09;4918942;28;102008;-75
2020/12/04 06:14:49;;;;;;;;;10.25;8.00;;;;;14.43;48.30;97080.41;4906234;28;101864;-75
2020/12/04 06:17:15;;;;;;;;;13.50;10.75;;;;;14.40;48.36;97071.97;4915271;28;102135;-75
2020/12/04 06:19:43;;;;;;;;;14.50;11.25;;;;;14.40;47.79;97085.56;4911223;28;103554;-74
2020/12/04 06:22:13;;;;;;;;;11.00;10.00;;;;;14.37;48.11;97081.47;4909500;28;103282;-74
2020/12/04 06:24:52;;;;;;;;;17.75;14.75;;;;;14.35;48.59;97080.88;4911964;28;102139;-75
2020/12/04 06:27:34;;;;;;;;;12.25;12.00;;;;;14.32;48.37;97092.25;4908101;28;101798;-75
2020/12/04 06:30:01;;;;;;;;;12.50;11.50;;;;;14.30;48.08;97081.66;4854146;28;108146;-75
2020/12/04 06:32:41;;;;;;;;;13.25;13.00;;;;;14.26;48.74;97091.44;4913408;28;102145;-75
2020/12/04 06:35:08;;;;;;;;;14.50;11.00;;;;;14.25;48.02;97089.78;4903068;28;102117;-75
2020/12/04 06:37:38;;;;;;;;;14.75;13.25;;;;;14.23;48.19;97097.38;4908798;28;102271;-75
2020/12/04 06:40:24;;;;;;;;;12.75;11.00;;;;;14.21;47.88;97088.69;4912654;28;103349;-75
2020/12/04 06:42:52;;;;;;;;;11.75;10.75;;;;;14.20;48.02;97103.34;4914849;28;102075;-75
2020/12/04 06:45:19;;;;;;;;;10.50;9.50;;;;;14.17;48.69;97106.59;4912341;28;103000;-74
2020/12/04 06:48:11;;;;;;;;;11.75;10.25;;;;;14.16;48.41;97117.72;4910008;28;106004;-75
2020/12/04 06:50:44;;;;;;;;;11.75;10.75;;;;;14.13;48.09;97119.06;4804393;28;108019;-74
2020/12/04 06:53:11;;;;;;;;;10.50;10.25;;;;;14.11;48.55;97121.22;4907251;28;102196;-75
2020/12/04 06:55:38;;;;;;;;;7.25;5.50;;;;;14.10;48.13;97124.19;4915677;28;101842;-74
2020/12/04 06:58:05;;;;;;;;;9.00;9.00;;;;;14.10;48.61;97118.75;4914071;28;102323;-75
2020/12/04 07:00:32;;;;;;;;;14.25;11.50;;;;;14.06;48.62;97115.72;4919343;28;103507;-75
2020/12/04 07:02:59;;;;;;;;;10.50;10.00;;;;;14.04;48.46;97117.91;4917793;28;102116;-75
2020/12/04 07:05:27;;;;;;;;;10.25;10.00;;;;;14.04;48.64;97120.63;4907548;28;102179;-75
2020/12/04 07:08:07;;;;;;;;;10.50;8.00;;;;;14.02;48.65;97120.03;4911347;28;102162;-75
2020/12/04 07:10:34;;;;;;;;;11.00;8.25;;;;;14.00;48.60;97119.50;4845460;28;108236;-75
2020/12/04 07:13:02;;;;;;;;;9.00;9.00;;;;;13.99;49.08;97120.56;4900527;28;102046;-75
2020/12/04 07:15:28;;;;;;;;;10.25;8.50;;;;;13.98;48.19;97123.53;4910197;28;102096;-75
2020/12/04 07:17:58;;;;;;;;;9.75;8.75;;;;;13.97;48.59;97124.59;4915950;28;102023;-75
2020/12/04 07:20:35;;;;;;;;;10.25;9.25;;;;;13.93;48.98;97126.22;4907889;28;108067;-75
2020/12/04 07:23:05;;;;;;;;;12.75;10.50;;;;;13.91;49.10;97121.06;4815165;28;102129;-75
2020/12/04 07:25:32;;;;;;;;;10.00;10.00;;;;;13.89;49.34;97120.47;4906709;28;102900;-75
2020/12/04 07:27:58;;;;;;;;;8.75;7.75;;;;;13.88;48.69;97116.13;4901614;28;103356;-75
2020/12/04 07:30:25;;;;;;;;;9.50;8.75;;;;;13.89;48.88;97117.75;4906336;28;103407;-75
2020/12/04 07:32:53;;;;;;;;;10.25;9.00;;;;;13.87;49.68;97116.41;4909143;28;102093;-75
2020/12/04 07:35:20;;;;;;;;;7.75;7.00;;;;;13.84;49.23;97117.72;4908788;28;102095;-75
2020/12/04 07:37:47;;;;;;;;;10.00;8.75;;;;;13.83;49.59;97114.16;4905835;28;103291;-75
2020/12/04 07:40:14;;;;;;;;;10.25;9.00;;;;;13.83;49.37;97107.91;4908976;28;103443;-75
2020/12/04 07:42:42;;;;;;;;;12.50;10.50;;;;;13.80;49.20;97090.25;4906909;28;102447;-75
2020/12/04 07:45:13;;;;;;;;;8.75;8.25;;;;;13.78;48.92;97092.38;4911985;28;101998;-75
2020/12/04 07:47:42;;;;;;;;;7.75;6.75;;;;;13.78;49.87;97084.25;4915158;28;103659;-75
2020/12/04 07:50:12;;;;;;;;;9.50;8.50;;;;;13.80;49.00;97086.72;4903652;28;104328;-75
2020/12/04 07:52:50;;;;;;;;;8.00;7.50;;;;;13.78;49.38;97078.81;4890899;28;103045;-75
2020/12/04 07:55:17;;;;;;;;;8.25;6.50;;;;;13.76;49.79;97080.97;4903903;28;102084;-75
2020/12/04 07:57:44;;;;;;;;;8.75;8.50;;;;;13.76;49.10;97085.59;4891320;28;102237;-75
2020/12/04 08:00:13;;;;;;;;;9.25;7.75;;;;;13.75;49.34;97089.38;4905452;28;103451;-75
2020/12/04 08:02:40;;;;;;;;;10.00;8.75;;;;;13.74;49.67;97093.16;4906107;28;103438;-75
2020/12/04 08:05:07;;;;;;;;;9.75;8.75;;;;;13.72;49.76;97079.03;4902228;28;103700;-80
2020/12/04 08:07:34;;;;;;;;;6.75;6.00;;;;;13.70;49.19;97075.75;4909080;28;102144;-80
2020/12/04 08:10:00;;;;;;;;;10.00;9.00;;;;;13.69;49.10;97076.81;4903537;28;103562;-80
2020/12/04 08:12:31;;;;;;;;;10.00;9.25;;;;;13.68;48.84;97077.91;4912568;28;102049;-78
2020/12/04 08:15:03;;;;;;;;;10.00;8.00;;;;;13.67;49.19;97076.25;4901291;28;102056;-79
2020/12/04 08:17:30;;;;;;;;;8.00;7.00;;;;;13.65;49.82;97084.66;4906559;28;102307;-80
2020/12/04 08:19:59;;;;;;;;;7.25;6.25;;;;;13.66;49.08;97085.50;4889271;28;103053;-80
2020/12/04 08:22:30;;;;;;;;;8.00;6.75;;;;;13.65;49.79;97086.56;4909790;28;102030;-80
2020/12/04 08:25:11;;;;;;;;;8.75;7.00;;;;;13.64;49.75;97093.09;4905581;28;102157;-80
2020/12/04 08:27:42;;;;;;;;;7.50;7.50;;;;;13.62;49.21;97095.22;4899837;28;101825;-80
2020/12/04 08:30:19;;;;;;;;;9.50;8.25;;;;;13.63;48.66;97094.16;4903949;28;103363;-80
2020/12/04 08:32:56;;;;;;;;;10.00;7.75;;;;;13.62;48.66;97100.66;4911192;28;102084;-80
2020/12/04 08:35:40;;;;;;;;;8.00;8.00;;;;;13.61;48.65;97094.41;4912138;28;102270;-80
2020/12/04 08:38:19;;;;;;;;;9.00;8.25;;;;;13.60;49.13;97094.69;4846520;28;102682;-80
2020/12/04 08:40:50;;;;;;;;;7.50;7.00;;;;;13.59;49.63;97099.28;4905593;28;103970;-80
2020/12/04 08:43:21;;;;;;;;;8.00;7.00;;;;;13.59;49.30;97106.63;4912571;28;104392;-79
2020/12/04 08:45:57;;;;;;;;;7.75;7.00;;;;;13.57;49.77;97093.28;4903740;28;101701;-79
2020/12/04 08:48:28;;;;;;;;;6.75;6.00;;;;;13.58;48.76;97102.25;4913047;28;101747;-83
2020/12/04 08:51:02;;;;;;;;;9.00;7.75;;;;;13.56;49.22;97093.53;4909659;28;107977;-83
2020/12/04 08:53:31;;;;;;;;;8.50;7.75;;;;;13.57;48.66;97101.44;4905672;28;101736;-83
2020/12/04 08:55:59;;;;;;;;;7.75;7.00;;;;;13.55;49.39;97090.03;4913117;28;101684;-82
2020/12/04 08:58:26;;;;;;;;;7.25;6.50;;;;;13.54;48.81;97082.13;4912784;28;103868;-85
2020/12/04 09:00:54;;;;;;;;;8.00;7.00;;;;;13.53;49.38;97080.47;4914490;28;107622;-85
2020/12/04 09:03:21;;;;;;;;;9.25;7.50;;;;;13.51;49.64;97064.44;4878492;28;101887;-85
2020/12/04 09:05:48;;;;;;;;;6.00;6.00;;;;;13.51;49.45;97066.34;4904814;28;102011;-85
2020/12/04 09:08:15;;;;;;;;;6.50;6.50;;;;;13.49;49.59;97058.44;4911050;28;102000;-84
2020/12/04 09:10:41;;;;;;;;;7.00;6.00;;;;;13.50;49.16;97042.97;4912069;28;103769;-84
2020/12/04 09:13:08;;;;;;;;;11.25;8.25;;;;;13.50;49.77;97042.97;4909902;28;102904;-84
2020/12/04 09:15:36;;;;;;;;;10.25;7.00;;;;;13.48;49.07;97043.22;4907597;28;101968;-84
2020/12/04 09:18:03;;;;;;;;;8.00;6.50;;;;;13.46;49.14;97044.56;4919673;28;102501;-84
2020/12/04 09:20:30;;;;;;;;;8.00;5.75;;;;;13.47;48.80;97038.03;4919479;28;103403;-84
2020/12/04 09:22:58;;;;;;;;;9.00;6.00;;;;;13.45;49.07;97040.22;4920336;28;102452;-83
2020/12/04 09:25:24;;;;;;;;;8.25;5.75;;;;;13.45;49.38;97043.75;4918697;28;101948;-84
2020/12/04 09:27:51;;;;;;;;;5.75;5.25;;;;;13.44;49.81;97049.44;4921364;28;101879;-83
2020/12/04 09:30:19;;;;;;;;;8.50;6.00;;;;;13.45;49.60;97045.66;4913277;28;103421;-84
2020/12/04 09:32:46;;;;;;;;;7.75;7.00;;;;;13.44;48.90;97033.13;4911364;28;102340;-83
2020/12/04 09:35:13;;;;;;;;;7.25;6.50;;;;;13.42;48.92;97040.75;4911336;28;101975;-83
2020/12/04 09:37:40;;;;;;;;;6.75;6.25;;;;;13.41;49.44;97023.63;4915241;28;102383;-83
2020/12/04 09:40:08;;;;;;;;;7.75;5.50;;;;;13.40;49.46;97033.66;4909028;28;103432;-85
2020/12/04 09:42:35;;;;;;;;;7.00;7.00;;;;;13.39;49.49;97029.31;4909514;28;101739;-85
2020/12/04 09:45:02;;;;;;;;;7.25;6.00;;;;;13.39;49.15;97015.72;4910691;28;102825;-83
2020/12/04 09:47:30;;;;;;;;;8.00;7.00;;;;;13.39;49.70;97021.16;4916294;28;102221;-84
2020/12/04 09:49:57;;;;;;;;;6.00;6.00;;;;;13.37;49.03;97023.31;4927801;28;103595;-83
2020/12/04 09:52:24;;;;;;;;;6.00;5.75;;;;;13.38;49.40;97027.66;4910792;28;102163;-84
2020/12/04 09:54:50;;;;;;;;;4.75;4.75;;;;;13.39;49.25;97014.91;4912956;28;102108;-84
2020/12/04 09:57:17;;;;;;;;;6.25;6.25;;;;;13.39;49.39;97020.34;4913860;28;102295;-83
2020/12/04 09:59:44;;;;;;;;;7.75;7.00;;;;;13.37;49.75;97023.31;4914855;28;103398;-83
2020/12/04 10:02:11;;;;;;;;;6.50;5.00;;;;;13.37;49.31;97019.78;4918709;28;102898;-83
2020/12/04 10:04:40;;;;;;;;;7.00;6.50;;;;;13.35;48.78;97040.94;4923519;28;102114;-83
2020/12/04 10:07:08;;;;;;;;;8.50;6.75;;;;;13.35;48.95;97036.31;4914147;28;103233;-83
2020/12/04 10:09:35;;;;;;;;;8.00;6.00;;;;;13.34;48.89;97034.69;4914027;28;103455;-84
2020/12/04 10:12:02;;;;;;;;;6.50;6.00;;;;;13.32;49.85;97039.56;4899609;28;102340;-83
2020/12/04 10:14:29;;;;;;;;;9.75;7.00;;;;;13.32;49.41;97026.00;4913389;28;101670;-83
2020/12/04 10:16:55;;;;;;;;;6.00;5.75;;;;;13.33;49.56;97007.78;4923170;28;102075;-83
2020/12/04 10:19:22;;;;;;;;;7.00;5.25;;;;;13.32;49.74;97006.16;4915520;28;107868;-83
2020/12/04 10:21:49;;;;;;;;;5.00;4.75;;;;;13.33;48.86;96994.22;4909660;28;102213;-83
2020/12/04 10:24:16;;;;;;;;;5.00;5.00;;;;;13.31;49.00;96991.78;4912240;28;102285;-83
2020/12/04 10:26:49;;;;;;;;;5.00;5.00;;;;;13.31;49.47;96986.34;4917096;28;102105;-83
2020/12/04 10:29:17;;;;;;;;;4.00;3.25;;;;;13.31;49.94;96997.19;4913624;28;103446;-83
2020/12/04 10:31:44;;;;;;;;;6.25;6.00;;;;;13.30;49.74;96984.69;4901626;28;102723;-83
2020/12/04 10:34:11;;;;;;;;;6.50;6.00;;;;;13.31;49.74;96989.06;4896181;28;102338;-81
2020/12/04 10:36:38;;;;;;;;;6.25;4.00;;;;;13.31;48.63;97013.50;4904759;28;103333;-80
2020/12/04 10:39:06;;;;;;;;;6.00;5.25;;;;;13.31;49.76;97007.25;4895281;28;103414;-80
2020/12/04 10:41:34;;;;;;;;;5.25;4.50;;;;;13.31;49.26;97023.53;4901542;28;102277;-79
2020/12/04 10:44:03;;;;;;;;;6.00;5.00;;;;;13.31;49.02;97007.25;4906846;28;102103;-79
2020/12/04 10:46:32;;;;;;;;;6.00;5.25;;;;;13.30;49.78;97017.28;4907871;28;101877;-79
2020/12/04 10:49:04;;;;;;;;;7.75;6.00;;;;;13.29;49.90;97006.66;4900302;28;102604;-83
2020/12/04 10:51:34;;;;;;;;;4.25;4.25;;;;;13.28;48.86;97008.56;4900684;28;101965;-85
2020/12/04 10:54:02;;;;;;;;;5.50;5.25;;;;;13.28;48.97;96997.69;4907938;28;102258;-75
2020/12/04 10:56:28;;;;;;;;;5.75;5.75;;;;;13.29;49.38;96999.34;4910738;28;102948;-75
2020/12/04 10:58:55;;;;;;;;;5.75;5.00;;;;;13.27;49.20;96998.78;4885283;28;103382;-75
2020/12/04 11:01:47;;;;;;;;;5.00;5.00;;;;;13.27;49.69;97015.09;4906782;28;101814;-75
2020/12/04 11:06:57;;;;;;;;;6.75;4.00;;;;;13.26;48.78;97021.56;4909077;28;102307;-75
2020/12/04 11:09:24;;;;;;;;;6.25;4.50;;;;;13.27;48.80;97025.13;4899919;28;108030;-76
2020/12/04 11:11:51;;;;;;;;;6.00;6.00;;;;;13.26;48.71;97010.72;4899374;28;102285;-76
2020/12/04 11:14:18;;;;;;;;;5.00;4.25;;;;;13.26;49.81;97005.28;4924853;28;102136;-73
2020/12/04 11:16:45;;;;;;;;;6.75;5.00;;;;;13.26;49.55;96993.63;4913681;28;103169;-76
2020/12/04 11:19:11;;;;;;;;;5.25;5.00;;;;;13.26;49.62;96989.00;4915461;28;105815;-76
2020/12/04 11:21:38;;;;;;;;;5.00;4.00;;;;;13.26;49.25;96969.19;4914224;28;102126;-76
2020/12/04 11:24:05;;;;;;;;;4.00;3.75;;;;;13.25;49.23;96960.22;4917711;28;102815;-76